< < Back
Terminal Aerodrome Forecast


Current Version              Previous Versions:   1  2  3  4  5  6  7  8  9  

Terminal Aerodrome Forecast

858
FTUS42 KJAX 292340
TAFJAX
TAF
KJAX 292340Z 3000/3024 VRB05KT P6SM FEW250
     FM300800 VRB03KT 2SM BR SCT002 BKN006
     FM301400 13010KT P6SM SCT025=

Latest METAR

447
SAUS80 KWBC 300100
MTRJAX
METAR KJAX 300056Z 13006KT 10SM FEW050 SCT250 24/22 A2995 RMK AO2 SLP141
T02440217


USA.gov is the U.S. government's official web portal to all federal, state and local government web resources and services.